createdAt,value
2023-04-09T00:02:11.682Z,84.40
2023-04-09T00:07:12.699Z,84.16
2023-04-09T00:12:13.850Z,85.06
2023-04-09T00:17:15.117Z,85.95
2023-04-09T00:22:16.084Z,85.96
2023-04-09T00:27:17.092Z,85.87
2023-04-09T00:32:18.055Z,85.71
2023-04-09T00:37:19.071Z,85.36
2023-04-09T00:42:21.037Z,85.81
2023-04-09T00:47:22.035Z,86.16
2023-04-09T00:52:24.086Z,85.73
2023-04-09T00:57:25.248Z,86.00
2023-04-09T01:02:27.776Z,86.17
2023-04-09T01:07:59.100Z,86.26
2023-04-09T01:13:12.962Z,85.87
2023-04-09T01:18:24.351Z,85.82
2023-04-09T01:24:01.197Z,85.82
2023-04-09T01:29:11.560Z,86.08
2023-04-09T01:34:14.223Z,86.14
2023-04-09T01:39:15.614Z,86.20
2023-04-09T01:44:17.593Z,86.44
2023-04-09T01:49:19.322Z,86.64
2023-04-09T01:54:20.558Z,86.40
2023-04-09T01:59:21.789Z,86.31
2023-04-09T02:04:24.186Z,86.20
2023-04-09T02:09:30.380Z,86.34
2023-04-09T02:14:32.777Z,87.18
2023-04-09T02:19:45.402Z,87.69
2023-04-09T02:24:47.820Z,87.64
2023-04-09T02:29:48.804Z,86.75
2023-04-09T02:34:49.780Z,86.42
2023-04-09T02:39:50.814Z,86.74
2023-04-09T02:44:52.003Z,87.08
2023-04-09T02:49:53.272Z,87.21
2023-04-09T02:54:54.854Z,86.60
2023-04-09T02:59:55.851Z,86.56
2023-04-09T03:04:56.868Z,86.84
2023-04-09T03:09:58.585Z,87.10
2023-04-09T03:14:59.650Z,87.08
2023-04-09T03:20:00.687Z,87.29
2023-04-09T03:25:09.120Z,86.74
2023-04-09T03:30:11.429Z,86.99
2023-04-09T03:35:16.868Z,87.14
2023-04-09T03:40:18.806Z,86.98
2023-04-09T03:45:20.768Z,87.03
2023-04-09T03:50:34.828Z,87.26
2023-04-09T03:55:37.191Z,87.07
2023-04-09T04:00:40.987Z,86.93
2023-04-09T04:06:03.052Z,86.95
2023-04-09T04:11:10.549Z,86.93
2023-04-09T04:16:17.794Z,86.32
2023-04-09T04:21:19.533Z,86.20
2023-04-09T04:26:28.111Z,86.25
2023-04-09T04:31:29.346Z,86.59
2023-04-09T04:36:32.074Z,86.16
2023-04-09T04:41:33.452Z,86.70
2023-04-09T04:46:57.606Z,86.03
2023-04-09T04:51:58.693Z,86.15
2023-04-09T04:57:00.884Z,86.53
2023-04-09T05:02:11.815Z,87.11
2023-04-09T05:07:29.055Z,86.90
2023-04-09T05:12:31.403Z,86.75
2023-04-09T05:17:32.854Z,86.05
2023-04-09T05:22:35.579Z,86.16
2023-04-09T05:27:37.432Z,86.28
2023-04-09T05:32:39.565Z,85.83
2023-04-09T05:37:41.671Z,85.51
2023-04-09T05:42:43.072Z,85.12
2023-04-09T05:47:52.889Z,85.66
2023-04-09T05:52:56.635Z,85.45
2023-04-09T05:58:02.059Z,84.66
2023-04-09T06:03:04.170Z,84.63
2023-04-09T06:08:05.799Z,84.27
2023-04-09T06:13:06.823Z,84.50
2023-04-09T06:18:07.926Z,84.01
2023-04-09T06:23:08.991Z,83.72
2023-04-09T06:28:10.847Z,83.30
2023-04-09T06:33:11.899Z,83.27
2023-04-09T06:38:12.982Z,83.45
2023-04-09T06:43:13.901Z,82.75
2023-04-09T06:48:22.442Z,82.61
2023-04-09T06:53:23.394Z,81.89
2023-04-09T06:58:24.786Z,82.43
2023-04-09T07:03:27.259Z,81.89
2023-04-09T07:08:28.770Z,81.43
2023-04-09T07:13:30.651Z,80.27
2023-04-09T07:18:31.714Z,80.17
2023-04-09T07:23:36.549Z,80.41
2023-04-09T07:28:39.873Z,79.54
2023-04-09T07:33:41.638Z,79.26
2023-04-09T07:38:44.232Z,78.74
2023-04-09T07:43:45.391Z,77.89
2023-04-09T07:48:48.300Z,78.13
2023-04-09T07:53:49.489Z,77.06
2023-04-09T07:58:50.778Z,76.25
2023-04-09T08:03:52.140Z,75.70
2023-04-09T08:08:53.529Z,74.85
2023-04-09T08:13:55.754Z,73.06
2023-04-09T08:18:56.988Z,71.35
2023-04-09T08:24:03.602Z,73.49
2023-04-09T08:29:04.818Z,74.11
2023-04-09T08:34:06.043Z,73.34
2023-04-09T08:39:06.983Z,73.25
2023-04-09T08:44:07.937Z,73.21
2023-04-09T08:49:10.126Z,73.52
2023-04-09T08:54:15.915Z,73.41
2023-04-09T08:59:20.557Z,73.23
2023-04-09T09:04:21.675Z,73.51
2023-04-09T09:09:22.971Z,73.56
2023-04-09T09:14:23.925Z,73.21
2023-04-09T09:19:24.993Z,74.12
2023-04-09T09:24:26.778Z,73.48
2023-04-09T09:29:28.308Z,73.19
2023-04-09T09:34:29.532Z,71.95
2023-04-09T09:39:43.993Z,71.69
2023-04-09T09:44:45.009Z,70.39
2023-04-09T09:49:49.002Z,69.75
2023-04-09T09:54:52.628Z,69.32
2023-04-09T10:00:00.005Z,69.17
2023-04-09T10:05:01.273Z,69.08
2023-04-09T10:10:12.702Z,68.82
2023-04-09T10:15:14.275Z,69.01
2023-04-09T10:20:31.992Z,69.27
2023-04-09T10:25:33.606Z,69.25
2023-04-09T10:30:36.017Z,69.26
2023-04-09T10:35:37.157Z,69.22
2023-04-09T10:40:48.722Z,69.03
2023-04-09T10:45:53.782Z,68.39
2023-04-09T10:50:54.898Z,69.41
2023-04-09T10:55:55.957Z,68.35
2023-04-09T11:01:00.985Z,68.71
2023-04-09T11:06:08.486Z,68.52
2023-04-09T11:11:09.484Z,68.97
2023-04-09T11:16:11.184Z,66.91
2023-04-09T11:21:12.909Z,67.17
2023-04-09T11:26:13.884Z,66.80
2023-04-09T11:31:15.817Z,65.97
2023-04-09T11:36:17.204Z,65.20
2023-04-09T11:41:18.165Z,65.29
2023-04-09T11:46:21.091Z,64.57
2023-04-09T11:51:22.910Z,63.76
2023-04-09T11:56:24.601Z,64.18
2023-04-09T12:01:31.842Z,63.29
2023-04-09T12:06:39.495Z,62.24
2023-04-09T12:11:43.623Z,62.11
2023-04-09T12:16:44.873Z,60.61
2023-04-09T12:21:52.233Z,60.89
2023-04-09T12:26:53.297Z,60.60
2023-04-09T12:31:54.343Z,60.38
2023-04-09T12:36:55.405Z,60.66
2023-04-09T12:41:57.057Z,59.54
2023-04-09T12:46:58.146Z,59.21
2023-04-09T12:51:59.283Z,58.94
2023-04-09T12:57:00.402Z,57.88
2023-04-09T13:02:01.581Z,59.26
2023-04-09T13:07:02.710Z,58.48
2023-04-09T13:12:03.665Z,55.66
2023-04-09T13:17:05.143Z,55.53
2023-04-09T13:22:08.176Z,56.28
2023-04-09T13:27:10.405Z,56.67
2023-04-09T13:32:11.527Z,55.36
2023-04-09T13:37:12.456Z,54.73
2023-04-09T13:42:14.524Z,54.75
2023-04-09T13:47:16.810Z,56.15
2023-04-09T13:52:17.849Z,54.23
2023-04-09T13:57:19.082Z,54.50
2023-04-09T14:02:20.214Z,54.80
2023-04-09T14:07:21.263Z,54.66
2023-04-09T14:12:22.217Z,55.15
2023-04-09T14:17:23.252Z,55.72
2023-04-09T14:22:25.741Z,56.17
2023-04-09T14:27:26.848Z,57.35
2023-04-09T14:32:27.891Z,57.87
2023-04-09T14:37:29.117Z,59.27
2023-04-09T14:42:30.123Z,60.79
2023-04-09T14:47:31.241Z,61.27
2023-04-09T14:52:32.518Z,62.00
2023-04-09T14:57:33.448Z,62.73
2023-04-09T15:02:34.804Z,61.72
2023-04-09T15:07:36.298Z,60.21
2023-04-09T15:12:37.253Z,61.71
2023-04-09T15:17:38.289Z,61.98
2023-04-09T15:22:39.952Z,63.11
2023-04-09T15:27:40.914Z,63.97
2023-04-09T15:32:41.884Z,65.31
2023-04-09T15:37:42.884Z,66.23
2023-04-09T15:42:44.086Z,66.92
2023-04-09T15:47:45.733Z,67.39
2023-04-09T15:52:48.288Z,68.23
2023-04-09T15:57:49.537Z,68.13
2023-04-09T16:02:52.332Z,67.27
2023-04-09T16:07:53.306Z,66.94
2023-04-09T16:12:54.247Z,66.09
2023-04-09T16:17:56.059Z,65.84
2023-04-09T16:22:57.123Z,65.99
2023-04-09T16:27:58.232Z,66.15
2023-04-09T16:32:59.199Z,66.13
2023-04-09T16:38:00.488Z,66.14
2023-04-09T16:43:01.939Z,66.16
2023-04-09T16:48:05.606Z,67.12
2023-04-09T16:53:07.332Z,68.16
2023-04-09T16:58:08.413Z,69.15
2023-04-09T17:03:09.531Z,70.11
2023-04-09T17:08:11.198Z,72.08
2023-04-09T17:13:12.169Z,73.46
2023-04-09T17:18:13.091Z,73.59
2023-04-09T17:23:14.248Z,74.28
2023-04-09T17:28:16.986Z,75.00
2023-04-09T17:33:19.742Z,75.72
2023-04-09T17:38:20.835Z,76.02
2023-04-09T17:43:22.082Z,76.49
2023-04-09T17:48:23.104Z,76.75
2023-04-09T17:53:24.190Z,76.87
2023-04-09T17:58:25.772Z,77.57
2023-04-09T18:03:26.915Z,77.81
2023-04-09T18:08:28.199Z,77.67
2023-04-09T18:13:29.192Z,77.61
2023-04-09T18:18:30.520Z,78.07
2023-04-09T18:23:32.222Z,78.24
2023-04-09T18:28:33.927Z,77.93
2023-04-09T18:33:34.882Z,77.79
2023-04-09T18:38:36.335Z,78.33
2023-04-09T18:43:37.320Z,78.36
2023-04-09T18:48:38.454Z,77.85
2023-04-09T18:53:40.430Z,78.36
2023-04-09T18:58:41.508Z,78.26
2023-04-09T19:03:44.190Z,78.26
2023-04-09T19:08:46.713Z,79.02
2023-04-09T19:13:47.676Z,79.06
2023-04-09T19:18:48.966Z,79.50
2023-04-09T19:23:50.052Z,79.76
2023-04-09T19:28:51.865Z,80.14
2023-04-09T19:33:53.017Z,80.03
2023-04-09T19:38:54.144Z,80.33
2023-04-09T19:43:55.485Z,80.28
2023-04-09T19:48:56.407Z,80.13
2023-04-09T19:53:57.353Z,80.25
2023-04-09T19:58:58.306Z,80.27
2023-04-09T20:03:59.298Z,80.85
2023-04-09T20:09:01.188Z,81.50
2023-04-09T20:14:03.167Z,81.07
2023-04-09T20:19:04.086Z,80.95
2023-04-09T20:24:06.072Z,81.24
2023-04-09T20:29:07.012Z,81.44
2023-04-09T20:34:07.921Z,81.84
2023-04-09T20:39:10.899Z,81.54
2023-04-09T20:44:12.039Z,81.67
2023-04-09T20:49:13.139Z,81.41
2023-04-09T20:54:14.773Z,81.75
2023-04-09T20:59:16.536Z,82.24
2023-04-09T21:04:17.746Z,82.49
2023-04-09T21:09:19.056Z,82.55
2023-04-09T21:14:25.877Z,82.55
2023-04-09T21:19:26.906Z,83.09
2023-04-09T21:24:27.947Z,83.03
2023-04-09T21:29:29.040Z,82.97
2023-04-09T21:34:30.770Z,83.35
2023-04-09T21:39:31.789Z,82.88
2023-04-09T21:44:33.940Z,83.77
2023-04-09T21:49:39.684Z,83.47
2023-04-09T21:54:45.939Z,83.77
2023-04-09T22:00:01.199Z,83.20
2023-04-09T22:05:07.857Z,83.12
2023-04-09T22:10:09.392Z,83.51
2023-04-09T22:15:11.516Z,83.83
2023-04-09T22:20:17.385Z,83.47
2023-04-09T22:25:22.303Z,83.42
2023-04-09T22:30:23.818Z,83.71
2023-04-09T22:35:24.961Z,83.87
2023-04-09T22:40:28.800Z,83.93
2023-04-09T22:45:31.473Z,83.99
2023-04-09T22:50:32.976Z,84.24
2023-04-09T22:55:33.934Z,84.18
2023-04-09T23:01:00.579Z,84.66
2023-04-09T23:06:01.559Z,84.22
2023-04-09T23:11:04.654Z,84.51
2023-04-09T23:16:10.311Z,83.98
2023-04-09T23:21:12.434Z,84.10
2023-04-09T23:26:13.356Z,84.07
2023-04-09T23:31:14.709Z,83.72
2023-04-09T23:36:15.841Z,83.93
2023-04-09T23:41:17.618Z,83.65
2023-04-09T23:46:19.415Z,83.80
2023-04-09T23:51:22.119Z,83.62
2023-04-09T23:56:23.170Z,83.96
